createdAt,value
2018-05-12T00:00:47.573Z,48.33
2018-05-12T00:01:47.534Z,48.32
2018-05-12T00:02:47.511Z,48.35
2018-05-12T00:03:47.563Z,48.35
2018-05-12T00:04:47.561Z,48.32
2018-05-12T00:05:47.690Z,48.31
2018-05-12T00:06:47.580Z,48.45
2018-05-12T00:07:47.364Z,48.43
2018-05-12T00:08:47.588Z,48.4
2018-05-12T00:09:47.692Z,48.33
2018-05-12T00:10:47.600Z,48.37
2018-05-12T00:11:47.601Z,48.31
2018-05-12T00:12:47.614Z,48.4
2018-05-12T00:13:47.665Z,48.39
2018-05-12T00:14:47.622Z,48.38
2018-05-12T00:15:47.626Z,48.33
2018-05-12T00:16:47.676Z,48.38
2018-05-12T00:17:47.735Z,48.35
2018-05-12T00:18:47.730Z,48.35
2018-05-12T00:19:47.685Z,48.3
2018-05-12T00:20:47.688Z,48.33
2018-05-12T00:21:47.663Z,48.35
2018-05-12T00:22:47.667Z,48.32
2018-05-12T00:23:47.677Z,48.41
2018-05-12T00:24:47.703Z,48.36
2018-05-12T00:25:47.688Z,48.41
2018-05-12T00:26:47.702Z,48.34
2018-05-12T00:27:47.702Z,48.38
2018-05-12T00:28:47.714Z,48.39
2018-05-12T00:29:47.696Z,48.34
2018-05-12T00:30:47.729Z,48.32
2018-05-12T00:31:47.530Z,48.35
2018-05-12T00:32:47.737Z,48.43
2018-05-12T00:33:47.745Z,48.36
2018-05-12T00:34:47.757Z,48.39
2018-05-12T00:35:47.764Z,48.36
2018-05-12T00:36:47.775Z,48.37
2018-05-12T00:37:47.772Z,48.38
2018-05-12T00:38:47.784Z,48.34
2018-05-12T00:39:47.763Z,48.33
2018-05-12T00:40:47.521Z,48.4
2018-05-12T00:41:47.560Z,48.34
2018-05-12T00:42:47.752Z,48.35
2018-05-12T00:43:50.797Z,48.31
2018-05-12T00:44:47.549Z,48.31
2018-05-12T00:45:47.636Z,48.28
2018-05-12T00:46:47.573Z,48.4
2018-05-12T00:47:47.792Z,48.45
2018-05-12T00:48:47.879Z,48.4
2018-05-12T00:49:47.599Z,48.36
2018-05-12T00:50:47.833Z,48.34
2018-05-12T00:51:47.377Z,48.33
2018-05-12T00:52:47.399Z,48.32
2018-05-12T00:53:47.587Z,48.37
2018-05-12T00:54:47.381Z,48.39
2018-05-12T00:55:47.884Z,48.39
2018-05-12T00:56:47.849Z,48.39
2018-05-12T00:57:47.618Z,48.46
2018-05-12T00:58:47.878Z,48.36
2018-05-12T00:59:47.383Z,48.38
2018-05-12T01:00:47.879Z,48.46
2018-05-12T01:01:47.700Z,48.32
2018-05-12T01:02:47.947Z,48.43
2018-05-12T01:03:47.413Z,48.4
2018-05-12T01:04:47.662Z,48.34
2018-05-12T01:05:47.395Z,48.34
2018-05-12T01:06:47.492Z,48.42
2018-05-12T01:07:47.678Z,48.47
2018-05-12T01:08:47.702Z,48.4
2018-05-12T01:09:47.435Z,48.39
2018-05-12T01:10:47.944Z,48.44
2018-05-12T01:11:47.386Z,48.42
2018-05-12T01:12:47.997Z,48.38
2018-05-12T01:13:47.669Z,48.33
2018-05-12T01:14:47.443Z,48.36
2018-05-12T01:15:47.639Z,48.35
2018-05-12T01:16:47.499Z,48.4
2018-05-12T01:17:47.456Z,48.37
2018-05-12T01:18:47.376Z,48.35
2018-05-12T01:19:47.720Z,48.41
2018-05-12T01:20:47.522Z,48.3
2018-05-12T01:21:47.455Z,48.4
2018-05-12T01:22:47.583Z,48.38
2018-05-12T01:23:47.471Z,48.37
2018-05-12T01:24:47.529Z,48.43
2018-05-12T01:25:47.447Z,48.44
2018-05-12T01:26:47.410Z,48.38
2018-05-12T01:27:47.435Z,48.43
2018-05-12T01:28:47.627Z,48.4
2018-05-12T01:29:47.401Z,48.46
2018-05-12T01:30:47.438Z,48.36
2018-05-12T01:31:47.483Z,48.42
2018-05-12T01:32:47.491Z,48.48
2018-05-12T01:33:47.481Z,48.35
2018-05-12T01:34:47.445Z,48.43
2018-05-12T01:35:47.415Z,48.37
2018-05-12T01:36:47.394Z,48.36
2018-05-12T01:37:47.390Z,48.36
2018-05-12T01:38:47.542Z,48.36
2018-05-12T01:39:47.410Z,48.44
2018-05-12T01:40:47.448Z,48.45
2018-05-12T01:41:47.602Z,48.42
2018-05-12T01:42:47.462Z,48.35
2018-05-12T01:43:47.438Z,48.4
2018-05-12T01:44:47.378Z,48.45
2018-05-12T01:45:47.597Z,48.39
2018-05-12T01:46:47.343Z,48.38
2018-05-12T01:47:47.522Z,48.37
2018-05-12T01:48:47.594Z,48.27
2018-05-12T01:49:47.419Z,48.29
2018-05-12T01:50:47.553Z,48.31
2018-05-12T01:51:47.544Z,48.36
2018-05-12T01:52:47.439Z,48.37
2018-05-12T01:53:47.514Z,48.36
2018-05-12T01:54:47.637Z,48.49
2018-05-12T01:55:47.409Z,48.41
2018-05-12T01:56:47.518Z,48.42
2018-05-12T01:57:47.351Z,48.35
2018-05-12T01:58:47.501Z,48.25
2018-05-12T01:59:47.507Z,48.34
2018-05-12T02:00:47.573Z,48.27
2018-05-12T02:01:47.463Z,48.34
2018-05-12T02:02:47.367Z,48.39
2018-05-12T02:03:47.360Z,48.4
2018-05-12T02:04:47.403Z,48.43
2018-05-12T02:05:47.403Z,48.37
2018-05-12T02:06:47.556Z,48.35
2018-05-12T02:07:47.380Z,48.39
2018-05-12T02:08:47.686Z,48.35
2018-05-12T02:09:47.593Z,48.36
2018-05-12T02:10:47.422Z,48.41
2018-05-12T02:11:47.464Z,48.39
2018-05-12T02:12:47.616Z,48.33
2018-05-12T02:13:47.604Z,48.32
2018-05-12T02:14:47.420Z,48.36
2018-05-12T02:15:47.543Z,48.39
2018-05-12T02:16:47.358Z,48.36
2018-05-12T02:17:47.376Z,48.39
2018-05-12T02:18:47.468Z,48.32
2018-05-12T02:19:47.629Z,48.31
2018-05-12T02:20:47.451Z,48.31
2018-05-12T02:21:47.577Z,48.46
2018-05-12T02:22:47.359Z,48.35
2018-05-12T02:23:47.930Z,48.38
2018-05-12T02:24:47.427Z,48.34
2018-05-12T02:25:47.600Z,48.34
2018-05-12T02:26:47.651Z,48.34
2018-05-12T02:27:47.582Z,48.32
2018-05-12T02:28:47.606Z,48.34
2018-05-12T02:29:47.383Z,48.37
2018-05-12T02:30:47.484Z,48.45
2018-05-12T02:31:47.498Z,48.39
2018-05-12T02:32:47.452Z,48.49
2018-05-12T02:33:47.375Z,48.31
2018-05-12T02:34:47.520Z,48.36
2018-05-12T02:35:47.509Z,48.29
2018-05-12T02:36:47.438Z,48.31
2018-05-12T02:37:47.577Z,48.4
2018-05-12T02:38:47.434Z,48.33
2018-05-12T02:39:47.360Z,48.29
2018-05-12T02:40:47.637Z,48.35
2018-05-12T02:41:47.360Z,48.34
2018-05-12T02:42:47.363Z,48.33
2018-05-12T02:43:47.595Z,48.38
2018-05-12T02:44:47.577Z,48.33
2018-05-12T02:45:47.576Z,48.29
2018-05-12T02:46:47.396Z,48.29
2018-05-12T02:47:47.607Z,48.42
2018-05-12T02:48:47.607Z,48.35
2018-05-12T02:49:47.614Z,48.31
2018-05-12T02:50:47.677Z,48.36
2018-05-12T02:51:47.433Z,48.28
2018-05-12T02:52:47.371Z,48.36
2018-05-12T02:53:47.353Z,48.31
2018-05-12T02:54:47.462Z,48.32
2018-05-12T02:55:47.605Z,48.34
2018-05-12T02:56:47.587Z,48.34
2018-05-12T02:57:47.528Z,48.36
2018-05-12T02:58:47.581Z,48.32
2018-05-12T02:59:47.512Z,48.32
2018-05-12T03:00:47.343Z,48.28
2018-05-12T03:01:47.606Z,48.29
2018-05-12T03:02:47.460Z,48.35
2018-05-12T03:03:47.426Z,48.25
2018-05-12T03:04:47.438Z,48.27
2018-05-12T03:05:47.499Z,48.28
2018-05-12T03:06:47.530Z,48.23
2018-05-12T03:07:47.497Z,48.31
2018-05-12T03:08:47.460Z,48.31
2018-05-12T03:09:47.604Z,48.3
2018-05-12T03:10:47.579Z,48.37
2018-05-12T03:11:47.288Z,48.3
2018-05-12T03:12:47.328Z,48.38
2018-05-12T03:13:47.412Z,48.35
2018-05-12T03:14:47.436Z,48.38
2018-05-12T03:15:47.332Z,48.35
2018-05-12T03:16:47.397Z,48.35
2018-05-12T03:17:47.618Z,48.33
2018-05-12T03:18:47.564Z,48.32
2018-05-12T03:19:47.587Z,48.38
2018-05-12T03:20:47.525Z,48.3
2018-05-12T03:21:47.427Z,48.27
2018-05-12T03:22:47.443Z,48.3
2018-05-12T03:23:47.421Z,48.33
2018-05-12T03:24:47.625Z,48.31
2018-05-12T03:25:47.337Z,48.32
2018-05-12T03:26:47.436Z,48.27
2018-05-12T03:27:47.397Z,48.38
2018-05-12T03:28:47.399Z,48.31
2018-05-12T03:29:47.378Z,48.23
2018-05-12T03:30:47.549Z,48.35
2018-05-12T03:31:47.634Z,48.29
2018-05-12T03:32:47.593Z,48.31
2018-05-12T03:33:47.613Z,48.38
2018-05-12T03:34:47.847Z,48.34
2018-05-12T03:35:47.630Z,48.29
2018-05-12T03:36:47.936Z,48.36
2018-05-12T03:37:47.310Z,48.27
2018-05-12T03:38:47.306Z,48.29
2018-05-12T03:39:47.437Z,48.32
2018-05-12T03:40:47.650Z,48.28
2018-05-12T03:41:47.403Z,48.27
2018-05-12T03:42:47.614Z,48.29
2018-05-12T03:43:47.379Z,48.25
2018-05-12T03:44:47.624Z,48.28
2018-05-12T03:45:47.647Z,48.29
2018-05-12T03:46:47.707Z,48.28
2018-05-12T03:47:47.535Z,48.26
2018-05-12T03:48:47.710Z,48.3
2018-05-12T03:49:47.472Z,48.3
2018-05-12T03:50:47.356Z,48.29
2018-05-12T03:51:47.749Z,48.29
2018-05-12T03:52:47.529Z,48.23
2018-05-12T03:53:47.686Z,48.29
2018-05-12T03:54:47.571Z,48.28
2018-05-12T03:55:47.472Z,48.35
2018-05-12T03:56:47.466Z,48.3
2018-05-12T03:57:47.297Z,48.33
2018-05-12T03:58:47.389Z,48.27
2018-05-12T03:59:47.435Z,48.29
2018-05-12T04:00:47.461Z,48.25
2018-05-12T04:01:47.408Z,48.24
2018-05-12T04:02:47.535Z,48.3
2018-05-12T04:03:47.379Z,48.31
2018-05-12T04:04:47.380Z,48.29
2018-05-12T04:05:47.356Z,48.31
2018-05-12T04:06:47.493Z,48.35
2018-05-12T04:07:47.572Z,48.33
2018-05-12T04:08:47.451Z,48.25
2018-05-12T04:09:47.547Z,48.32
2018-05-12T04:10:47.281Z,48.24
2018-05-12T04:11:47.559Z,48.29
2018-05-12T04:12:47.554Z,48.3
2018-05-12T04:13:47.468Z,48.27
2018-05-12T04:14:47.496Z,48.17
2018-05-12T04:15:47.516Z,48.27
2018-05-12T04:16:47.344Z,48.33
2018-05-12T04:17:47.480Z,48.27
2018-05-12T04:18:47.464Z,48.32
2018-05-12T04:19:47.548Z,48.26
2018-05-12T04:20:47.309Z,48.27
2018-05-12T04:21:47.427Z,48.33
2018-05-12T04:22:47.445Z,48.26
2018-05-12T04:23:47.567Z,48.27
2018-05-12T04:24:47.468Z,48.3
2018-05-12T04:25:47.279Z,48.26
2018-05-12T04:26:47.333Z,48.28
2018-05-12T04:27:47.498Z,48.34
2018-05-12T04:28:47.396Z,48.34
2018-05-12T04:29:47.395Z,48.24
2018-05-12T04:30:47.467Z,48.34
2018-05-12T04:31:47.412Z,48.32
2018-05-12T04:32:47.526Z,48.34
2018-05-12T04:33:47.352Z,48.35
2018-05-12T04:34:47.434Z,48.26
2018-05-12T04:35:57.329Z,48.31
2018-05-12T04:36:47.539Z,48.33
2018-05-12T04:37:47.322Z,48.33
2018-05-12T04:38:47.282Z,48.25
2018-05-12T04:39:47.402Z,48.33
2018-05-12T04:40:47.368Z,48.34
2018-05-12T04:41:47.579Z,48.28
2018-05-12T04:42:47.577Z,48.33
2018-05-12T04:43:47.354Z,48.23
2018-05-12T04:44:47.594Z,48.32
2018-05-12T04:45:47.555Z,48.26
2018-05-12T04:46:47.317Z,48.23
2018-05-12T04:47:47.525Z,48.31
2018-05-12T04:48:47.267Z,48.25
2018-05-12T04:49:47.433Z,48.27
2018-05-12T04:50:47.482Z,48.32
2018-05-12T04:51:47.546Z,48.3
2018-05-12T04:52:47.612Z,48.23
2018-05-12T04:53:47.324Z,48.31
2018-05-12T04:54:47.378Z,48.32
2018-05-12T04:55:47.429Z,48.31
2018-05-12T04:56:47.356Z,48.33
2018-05-12T04:57:47.345Z,48.34
2018-05-12T04:58:47.428Z,48.33
2018-05-12T04:59:47.624Z,48.33
2018-05-12T05:00:47.311Z,48.25
2018-05-12T05:01:47.562Z,48.29
2018-05-12T05:02:47.397Z,48.26
2018-05-12T05:03:47.814Z,48.35
2018-05-12T05:04:47.629Z,48.34
2018-05-12T05:05:47.382Z,48.3
2018-05-12T05:06:47.386Z,48.37
2018-05-12T05:07:57.364Z,48.27
2018-05-12T05:08:47.738Z,48.32
2018-05-12T05:09:47.447Z,48.31
2018-05-12T05:10:47.677Z,48.36
2018-05-12T05:11:47.611Z,48.37
2018-05-12T05:12:47.423Z,48.37
2018-05-12T05:13:47.559Z,48.31
2018-05-12T05:14:47.380Z,48.22
2018-05-12T05:15:47.369Z,48.36
2018-05-12T05:16:47.369Z,48.37
2018-05-12T05:17:47.390Z,48.28
2018-05-12T05:18:47.510Z,48.29
2018-05-12T05:19:47.374Z,48.32
2018-05-12T05:20:47.254Z,48.28
2018-05-12T05:21:47.410Z,48.38
2018-05-12T05:22:47.352Z,48.29
2018-05-12T05:23:47.363Z,48.35
2018-05-12T05:24:47.397Z,48.38
2018-05-12T05:25:47.273Z,48.29
2018-05-12T05:26:47.451Z,48.3
2018-05-12T05:27:47.495Z,48.37
2018-05-12T05:28:47.545Z,48.32
2018-05-12T05:29:47.399Z,48.25
2018-05-12T05:30:47.289Z,48.33
2018-05-12T05:31:47.445Z,48.29
2018-05-12T05:32:47.440Z,48.34
2018-05-12T05:33:47.499Z,48.33
2018-05-12T05:34:47.396Z,48.29
2018-05-12T05:35:47.385Z,48.3
2018-05-12T05:36:47.373Z,48.32
2018-05-12T05:37:47.448Z,48.33
2018-05-12T05:38:47.421Z,48.34
2018-05-12T05:39:47.670Z,48.33
2018-05-12T05:40:47.313Z,48.22
2018-05-12T05:41:47.462Z,48.25
2018-05-12T05:42:47.318Z,48.32
2018-05-12T05:43:47.461Z,48.34
2018-05-12T05:44:47.390Z,48.34
2018-05-12T05:45:47.387Z,48.34
2018-05-12T05:46:47.537Z,48.31
2018-05-12T05:47:47.384Z,48.31
2018-05-12T05:48:47.444Z,48.34
2018-05-12T05:49:47.485Z,48.34
2018-05-12T05:50:47.677Z,48.28
2018-05-12T05:51:47.370Z,48.31
2018-05-12T05:52:47.592Z,48.26
2018-05-12T05:53:47.376Z,48.31
2018-05-12T05:54:47.431Z,48.32
2018-05-12T05:55:47.424Z,48.34
2018-05-12T05:56:47.401Z,48.31
2018-05-12T05:57:47.389Z,48.37
2018-05-12T05:58:47.316Z,48.28
2018-05-12T05:59:47.382Z,48.22
2018-05-12T06:00:47.439Z,48.41
2018-05-12T06:01:47.317Z,48.29
2018-05-12T06:02:47.451Z,48.33
2018-05-12T06:03:47.383Z,48.32
2018-05-12T06:04:47.390Z,48.24
2018-05-12T06:05:47.519Z,48.2
2018-05-12T06:06:47.615Z,48.24
2018-05-12T06:07:47.406Z,48.34
2018-05-12T06:08:47.369Z,48.28
2018-05-12T06:09:47.349Z,48.34
2018-05-12T06:10:47.596Z,48.37
2018-05-12T06:11:47.369Z,48.25
2018-05-12T06:12:47.500Z,48.31
2018-05-12T06:13:47.353Z,48.22
2018-05-12T06:14:47.387Z,48.29
2018-05-12T06:15:47.504Z,48.4
2018-05-12T06:16:47.306Z,48.19
2018-05-12T06:17:47.252Z,48.27
2018-05-12T06:18:47.378Z,48.33
2018-05-12T06:19:47.373Z,48.27
2018-05-12T06:20:47.493Z,48.37
2018-05-12T06:21:47.459Z,48.4
2018-05-12T06:22:47.451Z,48.26
2018-05-12T06:23:47.468Z,48.3
2018-05-12T06:24:47.481Z,48.33
2018-05-12T06:25:47.327Z,48.33
2018-05-12T06:26:47.605Z,48.33
2018-05-12T06:27:47.481Z,48.4
2018-05-12T06:28:47.414Z,48.21
2018-05-12T06:29:47.427Z,48.27
2018-05-12T06:30:47.457Z,48.26
2018-05-12T06:31:47.597Z,48.29
2018-05-12T06:32:47.445Z,48.35
2018-05-12T06:33:47.298Z,48.3
2018-05-12T06:34:47.301Z,48.28
2018-05-12T06:35:47.491Z,48.25
2018-05-12T06:36:47.263Z,48.36
2018-05-12T06:37:47.277Z,48.35
2018-05-12T06:38:47.428Z,48.23
2018-05-12T06:39:47.289Z,48.24
2018-05-12T06:40:47.429Z,48.32
2018-05-12T06:41:47.478Z,48.2
2018-05-12T06:42:47.329Z,48.23
2018-05-12T06:43:47.504Z,48.21
2018-05-12T06:44:47.263Z,48.28
2018-05-12T06:45:47.393Z,48.22
2018-05-12T06:46:47.465Z,48.32
2018-05-12T06:47:47.378Z,48.23
2018-05-12T06:48:47.676Z,48.3
2018-05-12T06:49:47.459Z,48.19
2018-05-12T06:50:47.449Z,48.17
2018-05-12T06:51:47.525Z,48.34
2018-05-12T06:52:47.652Z,48.3
2018-05-12T06:53:47.491Z,48.29
2018-05-12T06:54:47.553Z,48.33
2018-05-12T06:55:47.372Z,48.41
2018-05-12T06:56:47.498Z,48.25
2018-05-12T06:57:47.543Z,48.62
2018-05-12T06:58:47.502Z,48.35
2018-05-12T06:59:47.636Z,48.17
2018-05-12T07:00:47.415Z,48.25
2018-05-12T07:01:47.522Z,48.18
2018-05-12T07:02:48.004Z,48.17
2018-05-12T07:03:47.420Z,48.29
2018-05-12T07:04:47.583Z,48.1
2018-05-12T07:05:47.507Z,48.13
2018-05-12T07:06:47.362Z,48.12
2018-05-12T07:07:47.347Z,48.06
2018-05-12T07:08:47.525Z,48.1
2018-05-12T07:09:47.480Z,48.04
2018-05-12T07:10:47.539Z,48.08
2018-05-12T07:11:47.439Z,48.09
2018-05-12T07:12:47.427Z,48.21
2018-05-12T07:13:47.383Z,48.08
2018-05-12T07:14:47.497Z,48.09
2018-05-12T07:15:47.620Z,48.14
2018-05-12T07:16:47.611Z,48.15
2018-05-12T07:17:47.653Z,48.05
2018-05-12T07:18:47.604Z,48.19
2018-05-12T07:19:47.464Z,48.12
2018-05-12T07:20:47.698Z,48.1
2018-05-12T07:21:47.316Z,48.24
2018-05-12T07:22:47.479Z,48.18
2018-05-12T07:23:47.484Z,48.14
2018-05-12T07:24:47.557Z,48.19
2018-05-12T07:25:47.451Z,48.18
2018-05-12T07:26:47.406Z,48.21
2018-05-12T07:27:47.620Z,48.44
2018-05-12T07:28:47.358Z,48.27
2018-05-12T07:29:47.718Z,48.47
2018-05-12T07:30:47.579Z,48.59
2018-05-12T07:31:47.449Z,48.53
2018-05-12T07:32:47.658Z,48.53
2018-05-12T07:33:47.393Z,48.54
2018-05-12T07:34:47.445Z,48.51
2018-05-12T07:35:47.348Z,48.42
2018-05-12T07:36:47.487Z,48.6
2018-05-12T07:37:47.363Z,48.5
2018-05-12T07:38:47.346Z,48.62
2018-05-12T07:39:47.513Z,48.67
2018-05-12T07:40:47.478Z,48.66
2018-05-12T07:41:47.521Z,48.65
2018-05-12T07:42:47.411Z,48.7
2018-05-12T07:43:47.557Z,48.66
2018-05-12T07:44:47.386Z,48.58
2018-05-12T07:45:47.443Z,48.72
2018-05-12T07:46:47.571Z,48.69
2018-05-12T07:47:47.337Z,48.64
2018-05-12T07:48:47.511Z,48.57
2018-05-12T07:49:47.528Z,48.6
2018-05-12T07:50:47.315Z,48.67
2018-05-12T07:51:47.438Z,48.69
2018-05-12T07:52:47.346Z,48.65
2018-05-12T07:53:47.364Z,48.66
2018-05-12T07:54:47.554Z,48.65
2018-05-12T07:55:47.472Z,48.69
2018-05-12T07:56:47.527Z,48.7
2018-05-12T07:57:47.488Z,48.59
2018-05-12T07:58:47.593Z,48.62
2018-05-12T07:59:47.453Z,48.63
2018-05-12T08:00:47.487Z,48.61
2018-05-12T08:01:47.457Z,48.7
2018-05-12T08:02:47.625Z,48.58
2018-05-12T08:03:47.469Z,48.56
2018-05-12T08:04:47.415Z,48.57
2018-05-12T08:05:47.343Z,48.53
2018-05-12T08:06:47.540Z,48.6
2018-05-12T08:07:47.808Z,48.57
2018-05-12T08:08:47.702Z,48.48
2018-05-12T08:09:47.528Z,48.47
2018-05-12T08:10:47.423Z,48.47
2018-05-12T08:11:47.399Z,48.47
2018-05-12T08:12:47.954Z,48.46
2018-05-12T08:13:47.510Z,48.77
2018-05-12T08:14:47.355Z,48.78
2018-05-12T08:15:47.533Z,48.86
2018-05-12T08:16:47.389Z,48.85
2018-05-12T08:17:47.384Z,48.77
2018-05-12T08:18:47.478Z,48.76
2018-05-12T08:19:47.588Z,48.88
2018-05-12T08:20:47.617Z,48.84
2018-05-12T08:21:47.448Z,48.88
2018-05-12T08:22:47.456Z,48.87
2018-05-12T08:23:47.425Z,48.77
2018-05-12T08:24:47.630Z,48.79
2018-05-12T08:25:47.556Z,48.78
2018-05-12T08:26:47.589Z,48.8
2018-05-12T08:27:47.455Z,48.77
2018-05-12T08:28:47.505Z,48.7
2018-05-12T08:29:47.552Z,48.82
2018-05-12T08:30:47.534Z,48.76
2018-05-12T08:31:47.543Z,48.74
2018-05-12T08:32:47.465Z,48.72
2018-05-12T08:33:47.657Z,48.72
2018-05-12T08:34:47.437Z,48.74
2018-05-12T08:35:47.514Z,48.69
2018-05-12T08:36:47.572Z,48.69
2018-05-12T08:37:47.412Z,48.7
2018-05-12T08:38:47.370Z,48.68
2018-05-12T08:39:47.384Z,48.61
2018-05-12T08:40:47.405Z,48.58
2018-05-12T08:41:47.497Z,48.63
2018-05-12T08:42:47.541Z,48.58
2018-05-12T08:43:47.389Z,48.52
2018-05-12T08:44:47.507Z,48.54
2018-05-12T08:45:47.537Z,48.62
2018-05-12T08:46:48.884Z,48.58
2018-05-12T08:47:47.498Z,48.51
2018-05-12T08:48:47.329Z,48.56
2018-05-12T08:49:47.515Z,48.54
2018-05-12T08:50:47.486Z,48.48
2018-05-12T08:51:47.457Z,48.44
2018-05-12T08:52:47.547Z,48.49
2018-05-12T08:53:47.368Z,48.51
2018-05-12T08:54:47.445Z,48.6
2018-05-12T08:55:47.377Z,48.51
2018-05-12T08:56:47.386Z,48.45
2018-05-12T08:57:47.309Z,48.53
2018-05-12T08:58:47.514Z,48.55
2018-05-12T08:59:47.482Z,48.46
2018-05-12T09:00:47.348Z,48.51
2018-05-12T09:01:47.485Z,48.41
2018-05-12T09:02:47.321Z,48.46
2018-05-12T09:03:47.505Z,48.51
2018-05-12T09:04:47.477Z,48.59
2018-05-12T09:05:47.557Z,48.63
2018-05-12T09:06:47.548Z,48.72
2018-05-12T09:07:47.599Z,48.85
2018-05-12T09:08:47.546Z,48.8
2018-05-12T09:09:47.473Z,48.85
2018-05-12T09:10:47.371Z,48.87
2018-05-12T09:11:47.488Z,48.91
2018-05-12T09:12:47.487Z,48.98
2018-05-12T09:13:47.476Z,48.92
2018-05-12T09:14:47.324Z,48.92
2018-05-12T09:15:47.369Z,49.05
2018-05-12T09:16:47.349Z,49.04
2018-05-12T09:17:47.569Z,49.04
2018-05-12T09:18:47.511Z,49.18
2018-05-12T09:19:47.368Z,49.19
2018-05-12T09:20:47.388Z,49.16
2018-05-12T09:21:47.519Z,49.08
2018-05-12T09:22:47.500Z,49.08
2018-05-12T09:23:47.337Z,49.16
2018-05-12T09:24:47.399Z,49.12
2018-05-12T09:25:47.535Z,49.12
2018-05-12T09:26:47.598Z,49.04
2018-05-12T09:27:47.474Z,49.12
2018-05-12T09:28:47.380Z,49.09
2018-05-12T09:29:47.356Z,49.11
2018-05-12T09:30:47.528Z,49.05
2018-05-12T09:31:47.436Z,49.15
2018-05-12T09:32:47.493Z,49.06
2018-05-12T09:33:47.386Z,49.14
2018-05-12T09:34:47.392Z,48.98
2018-05-12T09:35:47.458Z,49.1
2018-05-12T09:36:47.600Z,49.18
2018-05-12T09:37:47.638Z,49.14
2018-05-12T09:38:47.635Z,49.2
2018-05-12T09:39:47.649Z,49.21
2018-05-12T09:40:47.494Z,49.03
2018-05-12T09:41:47.666Z,49.14
2018-05-12T09:42:47.497Z,49.25
2018-05-12T09:43:47.453Z,49.27
2018-05-12T09:44:47.670Z,49.17
2018-05-12T09:45:47.455Z,49.17
2018-05-12T09:46:47.358Z,49.18
2018-05-12T09:47:47.481Z,49.19
2018-05-12T09:48:47.500Z,49.09
2018-05-12T09:49:47.629Z,49.24
2018-05-12T09:50:47.530Z,49.05
2018-05-12T09:51:47.343Z,49.27
2018-05-12T09:52:47.500Z,49.17
2018-05-12T09:53:47.613Z,49.45
2018-05-12T09:54:47.586Z,49.39
2018-05-12T09:55:47.672Z,49.36
2018-05-12T09:56:47.479Z,49.26
2018-05-12T09:57:44.951Z,49.45
2018-05-12T09:58:45.081Z,48.67
2018-05-12T09:59:45.025Z,48.75
2018-05-12T10:00:45.296Z,48.75
2018-05-12T10:01:45.116Z,48.81
2018-05-12T10:02:45.335Z,48.59
2018-05-12T10:03:45.447Z,48.51
2018-05-12T10:04:45.193Z,48.61
2018-05-12T10:05:45.278Z,48.55
2018-05-12T10:06:45.149Z,48.54
2018-05-12T10:07:45.232Z,48.48
2018-05-12T10:08:45.553Z,48.53
2018-05-12T10:09:45.396Z,48.34
2018-05-12T10:10:45.327Z,48.3
2018-05-12T10:11:45.442Z,48.29
2018-05-12T10:12:45.657Z,48.3
2018-05-12T10:13:45.463Z,48.32
2018-05-12T10:14:45.469Z,48.24
2018-05-12T10:15:45.483Z,48.27
2018-05-12T10:16:45.250Z,48.36
2018-05-12T10:17:45.195Z,48.24
2018-05-12T10:18:45.554Z,48.35
2018-05-12T10:19:45.263Z,48.34
2018-05-12T10:20:45.105Z,48.25
2018-05-12T10:21:45.281Z,48.2
2018-05-12T10:22:45.372Z,48.28
2018-05-12T10:23:45.357Z,48.3
2018-05-12T10:24:45.325Z,48.21
2018-05-12T10:25:45.146Z,48.03
2018-05-12T10:26:45.245Z,48.02
2018-05-12T10:27:45.047Z,48.02
2018-05-12T10:28:45.308Z,48.04
2018-05-12T10:29:45.304Z,47.73
2018-05-12T10:30:45.056Z,47.77
2018-05-12T10:31:45.078Z,47.8
2018-05-12T10:32:45.161Z,47.75
2018-05-12T10:33:45.341Z,47.74
2018-05-12T10:34:45.219Z,47.86
2018-05-12T10:35:45.221Z,47.67
2018-05-12T10:36:45.213Z,47.59
2018-05-12T10:37:45.153Z,47.59
2018-05-12T10:38:45.192Z,47.5
2018-05-12T10:39:45.156Z,47.72
2018-05-12T10:40:45.250Z,47.73
2018-05-12T10:41:45.219Z,48.42
2018-05-12T10:42:45.377Z,48.06
2018-05-12T10:43:45.205Z,47.42
2018-05-12T10:44:45.500Z,47.42
2018-05-12T10:45:45.231Z,47.46
2018-05-12T11:59:37.408Z,18.97
2018-05-12T12:00:37.741Z,20.29
2018-05-12T12:01:37.290Z,20.54
2018-05-12T12:02:37.681Z,22.1
2018-05-12T12:03:37.733Z,22.88
2018-05-12T12:04:37.564Z,24.22
2018-05-12T12:05:37.505Z,25.46
2018-05-12T12:06:37.712Z,26.38
2018-05-12T12:07:37.449Z,27.86
2018-05-12T12:08:37.462Z,29.04
2018-05-12T12:09:37.493Z,29.98
2018-05-12T12:10:37.365Z,31.08
2018-05-12T12:11:37.553Z,32.07
2018-05-12T12:13:37.646Z,33.63
2018-05-12T12:14:37.411Z,34.35
2018-05-12T12:15:37.498Z,34.97
2018-05-12T12:16:37.641Z,35.63
2018-05-12T12:17:37.565Z,36.16
2018-05-12T12:18:37.517Z,36.67
2018-05-12T12:19:37.439Z,37.2
2018-05-12T12:20:37.561Z,37.37
2018-05-12T12:21:37.444Z,38.22
2018-05-12T12:22:37.456Z,38.44
2018-05-12T12:23:37.623Z,38.64
2018-05-12T12:24:37.502Z,39.52
2018-05-12T12:25:37.427Z,39.52
2018-05-12T12:26:37.508Z,39.3
2018-05-12T12:27:37.606Z,40.38
2018-05-12T12:28:37.445Z,40.44
2018-05-12T12:29:37.614Z,39.39
2018-05-12T12:30:37.541Z,40.79
2018-05-12T12:31:37.733Z,40.9
2018-05-12T12:32:37.660Z,39.98
2018-05-12T12:33:37.516Z,41.32
2018-05-12T12:34:37.894Z,40.78
2018-05-12T12:35:37.789Z,41.02
2018-05-12T12:36:37.609Z,41.79
2018-05-12T12:37:37.557Z,42.06
2018-05-12T12:38:37.474Z,42.23
2018-05-12T12:40:09.059Z,42.29
2018-05-12T12:40:37.414Z,41.79
2018-05-12T12:41:37.489Z,42.5
2018-05-12T12:42:37.673Z,42.63
2018-05-12T12:43:37.681Z,42.2
2018-05-12T12:44:37.546Z,42.23
2018-05-12T12:45:37.540Z,43.12
2018-05-12T12:46:37.385Z,42.58
2018-05-12T12:47:37.695Z,42.75
2018-05-12T12:48:37.539Z,43.42
2018-05-12T12:49:37.467Z,44.3
2018-05-12T12:50:37.455Z,43.55
2018-05-12T12:51:37.543Z,43.34
2018-05-12T12:52:37.865Z,43.24
2018-05-12T12:53:37.437Z,43.93
2018-05-12T12:54:37.415Z,44.11
2018-05-12T12:55:37.627Z,43.8
2018-05-12T12:56:37.445Z,43.29
2018-05-12T12:57:37.624Z,44.06
2018-05-12T12:58:37.458Z,42.8
2018-05-12T12:59:37.544Z,42.09
2018-05-12T13:00:37.672Z,44.12
2018-05-12T13:01:37.577Z,43.91
2018-05-12T13:02:37.615Z,44.11
2018-05-12T13:03:37.646Z,44.36
2018-05-12T13:04:37.674Z,43.08
2018-05-12T13:05:37.667Z,43.54
2018-05-12T13:06:37.430Z,44.33
2018-05-12T13:07:37.526Z,44.41
2018-05-12T13:08:37.746Z,44.31
2018-05-12T13:09:37.480Z,44.53
2018-05-12T13:10:37.583Z,43.73
2018-05-12T13:11:37.436Z,43.94
2018-05-12T13:12:37.515Z,44.56
2018-05-12T13:13:37.751Z,43.99
2018-05-12T13:14:37.469Z,44.08
2018-05-12T13:15:37.646Z,44.64
2018-05-12T13:16:37.617Z,44.55
2018-05-12T13:17:37.415Z,44.39
2018-05-12T13:18:37.644Z,44.91
2018-05-12T13:19:37.689Z,44.24
2018-05-12T13:20:37.586Z,44.67
2018-05-12T13:21:37.573Z,44.93
2018-05-12T13:22:37.572Z,44.86
2018-05-12T13:23:37.949Z,44.58
2018-05-12T13:24:37.492Z,44.96
2018-05-12T13:25:37.725Z,44.72
2018-05-12T13:26:37.475Z,45.17
2018-05-12T13:27:37.380Z,45
2018-05-12T13:28:37.771Z,44.88
2018-05-12T13:29:37.480Z,44.69
2018-05-12T13:30:37.588Z,45.21
2018-05-12T13:31:37.673Z,44.7
2018-05-12T13:32:37.362Z,44.8
2018-05-12T13:33:37.697Z,45.33
2018-05-12T13:34:37.683Z,45.62
2018-05-12T13:35:37.482Z,44.89
2018-05-12T13:36:37.390Z,45.47
2018-05-12T13:37:37.296Z,45.02
2018-05-12T13:38:37.397Z,45.39
2018-05-12T13:39:37.391Z,45.44
2018-05-12T13:40:37.708Z,44.87
2018-05-12T13:41:37.663Z,44.63
2018-05-12T13:42:37.388Z,45.54
2018-05-12T13:43:37.555Z,44.81
2018-05-12T13:44:37.512Z,44.99
2018-05-12T13:45:47.437Z,45.51
2018-05-12T13:46:37.560Z,45.58
2018-05-12T13:47:37.605Z,45.07
2018-05-12T13:48:37.657Z,45.61
2018-05-12T13:49:37.474Z,45.77
2018-05-12T13:50:37.503Z,45.83
2018-05-12T13:51:37.505Z,45.57
2018-05-12T13:52:37.449Z,45.7
2018-05-12T13:53:37.620Z,45.6
2018-05-12T13:54:37.566Z,45.74
2018-05-12T13:55:37.617Z,45.39
2018-05-12T13:56:37.593Z,46
2018-05-12T13:57:37.521Z,45.83
2018-05-12T13:58:37.631Z,45.01
2018-05-12T13:59:37.641Z,45.69
2018-05-12T14:00:37.446Z,45.59
2018-05-12T14:01:37.493Z,45.26
2018-05-12T14:02:37.676Z,45.13
2018-05-12T14:03:37.672Z,45.77
2018-05-12T14:04:37.515Z,45.85
2018-05-12T14:05:37.574Z,45.48
2018-05-12T14:06:37.564Z,45.9
2018-05-12T14:07:37.442Z,46.02
2018-05-12T14:08:37.631Z,45.5
2018-05-12T14:09:37.541Z,45.78